Time;durP1;ratioP1;P1;durP2;ratioP2;P2;SDS_P1;SDS_P2;PMS_P1;PMS_P2;Temp;Humidity;BMP_temperature;BMP_pressure;BME280_temperature;BME280_humidity;BME280_pressure;Samples;Min_cycle;Max_cycle;Signal;HPM_P1;HPM_P2
2023/07/06 00:01:02;;;;;;;2.45;2.03;;;13.30;99.90;;;;;;5005059;28;20412;-79
2023/07/06 00:03:30;;;;;;;2.65;1.20;;;13.30;99.90;;;;;;5008128;28;20057;-80
2023/07/06 00:05:56;;;;;;;3.92;2.90;;;13.20;99.90;;;;;;5004852;28;21984;-79
2023/07/06 00:08:22;;;;;;;2.80;2.35;;;13.20;99.90;;;;;;4989210;28;20045;-80
2023/07/06 00:10:51;;;;;;;2.90;2.10;;;13.30;99.90;;;;;;5008478;28;20033;-80
2023/07/06 00:13:20;;;;;;;2.92;2.05;;;13.20;99.90;;;;;;5006480;28;20030;-80
2023/07/06 00:15:48;;;;;;;2.37;2.10;;;13.20;99.90;;;;;;5005515;28;20077;-80
2023/07/06 00:18:15;;;;;;;2.72;2.10;;;13.20;99.90;;;;;;5007975;28;20036;-80
2023/07/06 00:20:41;;;;;;;3.05;1.95;;;13.20;99.90;;;;;;5008273;28;20732;-80
2023/07/06 00:23:09;;;;;;;3.05;2.47;;;13.10;99.90;;;;;;5021729;28;20034;-80
2023/07/06 00:25:41;;;;;;;3.15;2.55;;;13.20;99.90;;;;;;5006002;28;20026;-80
2023/07/06 00:28:11;;;;;;;3.03;2.15;;;13.20;99.90;;;;;;4987112;28;20035;-79
2023/07/06 00:30:53;;;;;;;2.35;1.38;;;13.10;99.90;;;;;;4990576;28;20097;-78
2023/07/06 00:33:21;;;;;;;2.97;1.80;;;13.10;99.90;;;;;;5007967;28;20057;-80
2023/07/06 00:35:47;;;;;;;3.03;1.38;;;13.10;99.90;;;;;;5007426;28;20263;-79
2023/07/06 00:38:15;;;;;;;2.33;1.73;;;13.10;99.90;;;;;;5023251;28;20113;-79
2023/07/06 00:40:43;;;;;;;2.92;2.42;;;13.10;99.90;;;;;;5008366;28;20034;-80
2023/07/06 00:43:15;;;;;;;2.33;1.50;;;13.10;99.90;;;;;;4997671;28;20029;-80
2023/07/06 00:45:45;;;;;;;2.50;1.85;;;13.10;99.90;;;;;;5007593;28;20045;-80
2023/07/06 00:48:32;;;;;;;3.90;2.67;;;13.10;99.90;;;;;;5004154;28;20069;-80
2023/07/06 00:51:04;;;;;;;2.67;1.90;;;13.20;99.90;;;;;;4987674;28;20216;-80
2023/07/06 00:53:33;;;;;;;3.05;2.13;;;13.20;99.90;;;;;;5003024;28;20026;-80
2023/07/06 00:56:00;;;;;;;2.77;1.57;;;13.10;99.90;;;;;;5008282;28;20026;-79
2023/07/06 00:58:35;;;;;;;4.68;1.73;;;13.20;99.90;;;;;;4990816;28;20296;-79
2023/07/06 01:01:03;;;;;;;3.83;1.70;;;13.20;99.90;;;;;;5007385;28;20076;-80
2023/07/06 01:03:31;;;;;;;4.05;1.80;;;13.20;99.90;;;;;;5007857;28;20088;-79
2023/07/06 01:06:01;;;;;;;2.55;1.63;;;13.30;99.90;;;;;;4989631;28;20037;-80
2023/07/06 01:08:28;;;;;;;3.08;1.95;;;13.20;99.90;;;;;;4983979;28;20056;-80
2023/07/06 01:10:56;;;;;;;3.97;1.95;;;13.30;99.90;;;;;;5029907;28;20120;-78
2023/07/06 01:13:24;;;;;;;3.25;2.13;;;13.30;99.90;;;;;;5003856;28;20042;-80
2023/07/06 01:16:02;;;;;;;3.05;2.25;;;13.30;99.90;;;;;;4988727;28;20026;-80
2023/07/06 01:18:35;;;;;;;2.95;2.00;;;13.30;99.90;;;;;;4989128;28;20390;-80
2023/07/06 01:21:19;;;;;;;3.67;1.75;;;13.30;99.90;;;;;;4990244;28;20037;-80
2023/07/06 01:23:59;;;;;;;2.33;1.63;;;13.30;99.90;;;;;;4987740;28;20037;-79
2023/07/06 01:26:34;;;;;;;2.55;1.60;;;13.30;99.90;;;;;;4998677;28;20049;-79
2023/07/06 01:29:07;;;;;;;3.30;2.20;;;13.30;99.90;;;;;;5002670;28;20052;-80
2023/07/06 01:31:38;;;;;;;3.58;2.00;;;13.30;99.90;;;;;;5003360;28;20508;-80
2023/07/06 01:34:24;;;;;;;2.72;1.60;;;13.30;99.90;;;;;;5004213;28;20091;-79
2023/07/06 01:37:00;;;;;;;3.05;1.52;;;13.30;99.90;;;;;;5012621;28;20022;-80
2023/07/06 01:39:29;;;;;;;3.05;1.40;;;13.30;99.90;;;;;;5005971;28;20026;-79
2023/07/06 01:42:07;;;;;;;2.60;1.48;;;13.30;99.90;;;;;;4988500;28;20092;-80
2023/07/06 01:44:34;;;;;;;5.53;3.17;;;13.30;99.90;;;;;;5003640;28;20057;-79
2023/07/06 01:47:02;;;;;;;4.30;3.03;;;13.30;99.90;;;;;;5002015;28;20037;-80
2023/07/06 01:49:28;;;;;;;4.53;2.80;;;13.20;99.90;;;;;;5002640;28;20084;-79
2023/07/06 01:51:59;;;;;;;3.65;2.30;;;13.20;99.90;;;;;;5006434;28;20029;-79
2023/07/06 01:54:32;;;;;;;2.97;1.33;;;13.10;99.90;;;;;;5005395;28;20113;-81
2023/07/06 01:57:07;;;;;;;3.40;2.70;;;13.10;99.90;;;;;;5004247;28;20445;-80
2023/07/06 01:59:36;;;;;;;3.83;1.98;;;13.00;99.90;;;;;;5012847;28;20117;-80
2023/07/06 02:02:07;;;;;;;3.85;2.42;;;13.00;99.90;;;;;;5008831;28;20065;-81
2023/07/06 02:04:36;;;;;;;2.63;1.80;;;12.90;99.90;;;;;;5031727;28;20117;-80
2023/07/06 02:07:05;;;;;;;2.53;2.05;;;12.90;99.90;;;;;;5009552;28;20417;-81
2023/07/06 02:09:31;;;;;;;3.45;1.88;;;12.90;99.90;;;;;;5006163;28;20030;-81
2023/07/06 02:11:57;;;;;;;2.88;1.40;;;12.90;99.90;;;;;;5002042;28;20100;-80
2023/07/06 02:14:23;;;;;;;3.65;2.17;;;12.90;99.90;;;;;;5005488;28;20034;-80
2023/07/06 02:16:52;;;;;;;3.00;1.98;;;12.90;99.90;;;;;;4991233;28;20026;-80
2023/07/06 02:19:20;;;;;;;3.63;1.65;;;12.80;99.90;;;;;;5006384;28;20208;-81
2023/07/06 02:21:49;;;;;;;2.67;1.48;;;12.80;99.90;;;;;;5009750;28;20030;-80
2023/07/06 02:24:14;;;;;;;4.40;1.60;;;12.80;99.90;;;;;;4993664;28;20402;-80
2023/07/06 02:26:40;;;;;;;2.90;1.60;;;12.80;99.90;;;;;;5011268;28;20026;-80
2023/07/06 02:29:06;;;;;;;2.67;1.42;;;12.80;99.90;;;;;;5010008;28;20026;-80
2023/07/06 02:31:34;;;;;;;2.90;1.40;;;12.80;99.90;;;;;;5009758;28;20033;-81
2023/07/06 02:34:01;;;;;;;3.45;1.10;;;12.80;99.90;;;;;;5010149;28;20029;-81
2023/07/06 02:36:27;;;;;;;2.47;1.15;;;12.80;99.90;;;;;;5008956;28;20034;-79
2023/07/06 02:38:52;;;;;;;2.22;1.30;;;12.80;99.90;;;;;;5010163;28;20072;-80
2023/07/06 02:41:19;;;;;;;2.35;1.00;;;12.90;99.90;;;;;;4990154;28;20095;-80
2023/07/06 02:43:45;;;;;;;3.20;1.42;;;12.80;99.90;;;;;;4989296;28;20030;-81
2023/07/06 02:46:17;;;;;;;3.67;1.30;;;12.90;99.90;;;;;;4999359;28;20470;-81
2023/07/06 02:48:43;;;;;;;2.55;1.15;;;12.80;99.90;;;;;;5007478;28;20045;-80
2023/07/06 02:51:08;;;;;;;2.90;1.30;;;12.90;99.90;;;;;;4992370;28;20041;-80
2023/07/06 02:53:34;;;;;;;2.35;0.80;;;12.90;99.90;;;;;;5006947;28;20032;-80
2023/07/06 02:56:00;;;;;;;2.00;0.93;;;12.90;99.90;;;;;;5009810;28;20061;-81
2023/07/06 02:58:27;;;;;;;3.10;1.73;;;12.90;99.90;;;;;;5009637;28;20183;-81
2023/07/06 03:00:55;;;;;;;3.10;0.90;;;12.90;99.90;;;;;;5025639;28;20065;-81
2023/07/06 03:03:23;;;;;;;3.08;0.90;;;12.90;99.90;;;;;;5005438;28;20030;-80
2023/07/06 03:05:49;;;;;;;1.92;0.77;;;12.90;99.90;;;;;;5009319;28;20018;-80
2023/07/06 03:08:15;;;;;;;2.83;1.02;;;12.90;99.90;;;;;;5023826;28;20033;-80
2023/07/06 03:10:47;;;;;;;2.63;0.90;;;12.90;99.90;;;;;;5009058;28;20030;-81
2023/07/06 03:13:16;;;;;;;2.22;0.85;;;12.90;99.90;;;;;;4992083;28;20145;-80
2023/07/06 03:15:41;;;;;;;3.20;1.00;;;12.90;99.90;;;;;;4992768;28;20030;-80
2023/07/06 03:18:08;;;;;;;2.10;1.00;;;12.80;99.90;;;;;;5009102;28;20057;-80
2023/07/06 03:20:37;;;;;;;2.45;0.75;;;12.90;99.90;;;;;;5005764;28;20030;-79
2023/07/06 03:23:03;;;;;;;2.23;0.90;;;12.90;99.90;;;;;;5007023;28;20061;-79
2023/07/06 03:25:29;;;;;;;2.30;0.77;;;12.80;99.90;;;;;;5009179;28;20076;-79
2023/07/06 03:27:56;;;;;;;2.38;1.30;;;12.90;99.90;;;;;;5008793;28;20034;-77
2023/07/06 03:30:28;;;;;;;1.98;1.00;;;12.80;99.90;;;;;;5007550;28;20029;-80
2023/07/06 03:32:59;;;;;;;2.03;0.95;;;12.80;99.90;;;;;;5007561;28;20118;-81
2023/07/06 03:35:25;;;;;;;1.65;0.85;;;12.80;99.90;;;;;;4997697;28;20026;-80
2023/07/06 03:37:55;;;;;;;3.30;1.30;;;12.70;99.90;;;;;;4997002;28;20718;-80
2023/07/06 03:40:21;;;;;;;2.47;0.82;;;12.80;99.90;;;;;;5010539;28;20022;-81
2023/07/06 03:42:48;;;;;;;3.38;0.80;;;12.80;99.90;;;;;;5026907;28;20034;-79
2023/07/06 03:45:16;;;;;;;1.92;1.00;;;12.80;99.90;;;;;;5004979;28;20391;-80
2023/07/06 03:47:43;;;;;;;2.78;0.90;;;12.80;99.90;;;;;;5006444;28;20042;-81
2023/07/06 03:50:12;;;;;;;1.85;0.70;;;12.80;99.90;;;;;;4987209;28;20025;-81
2023/07/06 03:52:39;;;;;;;4.40;0.80;;;12.80;99.90;;;;;;5006515;28;20402;-80
2023/07/06 03:55:24;;;;;;;2.58;1.08;;;12.80;99.90;;;;;;5008389;28;20475;-80
2023/07/06 03:57:50;;;;;;;2.13;0.77;;;12.80;99.90;;;;;;5005422;28;20053;-80
2023/07/06 04:00:21;;;;;;;2.55;0.70;;;12.80;99.90;;;;;;4987827;28;20037;-80
2023/07/06 04:02:49;;;;;;;1.60;0.70;;;12.80;99.90;;;;;;5028575;28;20438;-80
2023/07/06 04:05:19;;;;;;;5.18;0.80;;;12.80;99.90;;;;;;5004562;28;20022;-81
2023/07/06 04:07:52;;;;;;;3.13;1.48;;;12.80;99.90;;;;;;5006780;28;20425;-80
2023/07/06 04:10:21;;;;;;;3.78;0.80;;;12.80;99.90;;;;;;5005870;28;20025;-81
2023/07/06 04:12:48;;;;;;;2.05;0.70;;;12.80;99.90;;;;;;4992315;28;20080;-81
2023/07/06 04:15:19;;;;;;;1.83;0.80;;;12.80;99.90;;;;;;5008503;28;20021;-80
2023/07/06 04:17:47;;;;;;;1.83;0.70;;;12.80;99.90;;;;;;4987512;28;20030;-80
2023/07/06 04:20:22;;;;;;;1.83;0.60;;;12.80;99.90;;;;;;5007673;28;20517;-80
2023/07/06 04:22:53;;;;;;;3.85;0.90;;;12.80;99.90;;;;;;5006592;28;20566;-80
2023/07/06 04:25:19;;;;;;;6.30;0.90;;;12.90;99.90;;;;;;5007602;28;20157;-80
2023/07/06 04:27:46;;;;;;;2.00;0.98;;;12.90;99.90;;;;;;5008075;28;20195;-80
2023/07/06 04:30:14;;;;;;;3.08;1.05;;;12.90;99.90;;;;;;5007380;28;20114;-80
2023/07/06 04:32:42;;;;;;;4.28;1.75;;;12.90;99.90;;;;;;5003899;28;20034;-81
2023/07/06 04:35:12;;;;;;;3.17;1.00;;;12.90;99.90;;;;;;4990292;28;20053;-80
2023/07/06 04:37:37;;;;;;;;;;;13.00;99.90;;;;;;4988085;28;20084;-80
2023/07/06 04:40:13;;;;;;;2.15;0.75;;;13.00;99.90;;;;;;5005601;28;19910;-79
2023/07/06 04:42:40;;;;;;;2.20;1.05;;;13.10;99.90;;;;;;4990661;28;20026;-80
2023/07/06 04:45:11;;;;;;;4.28;1.55;;;13.00;99.90;;;;;;4990436;28;20159;-79
2023/07/06 04:47:39;;;;;;;2.10;1.33;;;13.10;99.90;;;;;;4990738;28;20160;-80
2023/07/06 04:50:07;;;;;;;3.25;1.00;;;13.10;99.90;;;;;;5006719;28;20034;-80
2023/07/06 04:52:39;;;;;;;3.30;1.25;;;13.10;99.90;;;;;;4996881;28;20192;-79
2023/07/06 04:55:08;;;;;;;3.22;1.13;;;13.20;99.90;;;;;;4986773;28;20101;-80
2023/07/06 04:57:35;;;;;;;4.82;1.42;;;13.20;99.90;;;;;;5001588;28;20037;-80
2023/07/06 05:00:11;;;;;;;3.95;1.77;;;13.10;99.90;;;;;;5006389;28;20501;-80
2023/07/06 05:02:37;;;;;;;3.92;1.77;;;13.10;99.90;;;;;;5003538;28;20053;-80
2023/07/06 05:05:03;;;;;;;3.95;2.10;;;13.10;99.90;;;;;;5006139;28;20041;-80
2023/07/06 05:07:30;;;;;;;5.70;2.35;;;13.10;99.90;;;;;;4983168;28;20034;-79
2023/07/06 05:09:56;;;;;;;3.28;2.30;;;13.20;99.90;;;;;;4993623;28;20603;-79
2023/07/06 05:12:22;;;;;;;4.25;1.95;;;13.20;99.90;;;;;;5008282;28;20048;-79
2023/07/06 05:14:48;;;;;;;5.18;1.70;;;13.20;99.90;;;;;;4978873;28;20502;-79
2023/07/06 05:17:14;;;;;;;3.17;1.25;;;13.20;99.90;;;;;;4983905;28;20031;-79
2023/07/06 05:19:42;;;;;;;2.65;1.27;;;13.30;99.90;;;;;;5004880;28;20029;-80
2023/07/06 05:22:08;;;;;;;3.33;1.63;;;13.30;99.90;;;;;;4997316;28;20038;-79
2023/07/06 05:24:34;;;;;;;3.72;2.22;;;13.20;99.90;;;;;;4996940;28;20025;-79
2023/07/06 05:27:00;;;;;;;4.38;1.85;;;13.20;99.90;;;;;;5001291;28;20022;-79
2023/07/06 05:29:25;;;;;;;4.63;1.05;;;13.20;99.90;;;;;;5006778;28;20054;-79
2023/07/06 05:31:51;;;;;;;4.70;1.05;;;13.20;99.90;;;;;;5005650;28;20410;-80
2023/07/06 05:34:17;;;;;;;5.85;1.17;;;13.30;99.90;;;;;;4989605;28;20022;-80
2023/07/06 05:36:43;;;;;;;3.10;0.90;;;13.30;99.90;;;;;;4999044;28;20033;-80
2023/07/06 05:39:08;;;;;;;4.80;1.08;;;13.40;99.90;;;;;;5026106;28;20029;-80
2023/07/06 05:41:34;;;;;;;3.13;0.88;;;13.40;99.90;;;;;;4998152;28;20029;-80
2023/07/06 05:44:00;;;;;;;2.08;0.80;;;13.50;99.90;;;;;;4990703;28;20370;-80
2023/07/06 05:46:25;;;;;;;4.50;1.00;;;13.50;99.90;;;;;;5008889;28;20034;-79
2023/07/06 05:48:54;;;;;;;2.80;0.80;;;13.50;99.90;;;;;;4999488;28;20403;-80
2023/07/06 05:51:19;;;;;;;5.57;0.95;;;13.50;99.90;;;;;;5003636;28;20104;-81
2023/07/06 05:53:48;;;;;;;2.30;0.90;;;13.60;99.90;;;;;;4999783;28;20057;-80
2023/07/06 05:56:15;;;;;;;2.05;0.80;;;13.80;99.90;;;;;;5000537;28;20033;-79
2023/07/06 05:58:43;;;;;;;3.05;1.08;;;13.90;99.90;;;;;;5011072;28;20034;-79
2023/07/06 06:01:09;;;;;;;2.42;0.60;;;13.90;99.90;;;;;;5005485;28;20136;-80
2023/07/06 06:03:35;;;;;;;3.60;0.70;;;14.00;99.90;;;;;;4990172;28;20115;-80
2023/07/06 06:06:01;;;;;;;3.10;0.90;;;14.10;99.90;;;;;;5000660;28;20033;-82
2023/07/06 06:08:28;;;;;;;2.30;1.15;;;14.20;99.90;;;;;;4996773;28;20228;-80
2023/07/06 06:10:55;;;;;;;4.82;1.10;;;14.20;99.90;;;;;;5006474;28;20497;-80
2023/07/06 06:13:22;;;;;;;3.80;1.25;;;14.30;99.90;;;;;;5009416;28;20174;-79
2023/07/06 06:15:47;;;;;;;3.25;1.20;;;14.40;99.90;;;;;;4990767;28;20022;-79
2023/07/06 06:18:14;;;;;;;4.05;1.17;;;14.50;99.90;;;;;;5007389;28;20471;-80
2023/07/06 06:20:42;;;;;;;4.20;1.15;;;14.50;99.90;;;;;;5001214;28;20037;-79
2023/07/06 06:23:10;;;;;;;3.88;2.20;;;14.60;99.90;;;;;;4996138;28;20080;-79
2023/07/06 06:25:38;;;;;;;3.70;1.85;;;14.70;99.90;;;;;;5009805;28;20029;-81
2023/07/06 06:28:05;;;;;;;4.57;1.13;;;14.70;99.90;;;;;;5009316;28;20038;-79
2023/07/06 06:30:31;;;;;;;6.25;1.75;;;14.80;99.90;;;;;;4999080;28;20186;-79
2023/07/06 06:32:57;;;;;;;5.78;2.30;;;14.80;99.90;;;;;;5001427;28;20438;-79
2023/07/06 06:35:27;;;;;;;5.32;1.75;;;14.70;99.90;;;;;;5004868;28;20037;-81
2023/07/06 06:37:54;;;;;;;7.43;2.28;;;14.90;99.90;;;;;;5007834;28;20033;-81
2023/07/06 06:40:21;;;;;;;3.05;1.75;;;15.10;99.90;;;;;;4989533;28;20475;-80
2023/07/06 06:42:48;;;;;;;5.07;2.05;;;15.30;99.90;;;;;;5004347;28;20034;-81
2023/07/06 06:45:15;;;;;;;4.38;2.33;;;15.60;99.90;;;;;;5006639;28;20105;-81
2023/07/06 06:47:41;;;;;;;4.13;1.67;;;15.70;99.90;;;;;;5008018;28;20402;-80
2023/07/06 06:50:09;;;;;;;5.15;2.25;;;15.70;99.90;;;;;;5008854;28;20108;-80
2023/07/06 06:52:37;;;;;;;4.65;2.30;;;15.70;99.90;;;;;;4994300;28;20467;-80
2023/07/06 06:55:04;;;;;;;11.50;3.83;;;15.70;99.90;;;;;;4983647;28;20450;-80
2023/07/06 06:57:30;;;;;;;9.32;4.30;;;15.80;99.90;;;;;;4999336;28;20027;-81
2023/07/06 06:59:56;;;;;;;9.10;4.28;;;15.50;99.90;;;;;;4999663;28;20077;-80
2023/07/06 07:02:22;;;;;;;5.28;2.72;;;15.50;99.90;;;;;;5008137;28;20049;-81
2023/07/06 07:04:49;;;;;;;7.97;3.78;;;15.60;99.90;;;;;;5000732;28;20051;-80
2023/07/06 07:07:16;;;;;;;7.90;4.10;;;15.60;99.90;;;;;;5001060;28;20518;-81
2023/07/06 07:09:44;;;;;;;4.13;2.00;;;15.70;99.90;;;;;;5005269;28;20048;-79
2023/07/06 07:12:11;;;;;;;7.82;3.90;;;15.80;99.90;;;;;;5001024;28;20385;-81
2023/07/06 07:14:38;;;;;;;8.27;3.65;;;15.80;99.90;;;;;;5016037;28;20544;-81
2023/07/06 07:17:07;;;;;;;8.52;3.95;;;15.90;99.90;;;;;;5020820;28;20410;-81
2023/07/06 07:19:34;;;;;;;7.90;4.78;;;15.80;99.90;;;;;;4998678;28;20033;-81
2023/07/06 07:22:00;;;;;;;8.75;5.20;;;15.70;99.90;;;;;;4997668;28;20533;-80
2023/07/06 07:24:30;;;;;;;11.15;5.25;;;15.70;99.90;;;;;;5020588;28;20080;-82
2023/07/06 07:27:00;;;;;;;9.23;5.20;;;15.70;99.90;;;;;;4994521;28;20030;-82
2023/07/06 07:29:26;;;;;;;10.40;5.38;;;15.80;99.90;;;;;;5001782;28;20081;-81
2023/07/06 07:31:53;;;;;;;7.40;4.68;;;16.00;99.90;;;;;;5013746;28;20046;-81
2023/07/06 07:34:20;;;;;;;10.18;5.72;;;16.00;99.90;;;;;;4995966;28;20147;-82
2023/07/06 07:36:46;;;;;;;7.43;3.42;;;16.00;99.90;;;;;;4998564;28;20025;-81
2023/07/06 07:39:14;;;;;;;8.18;4.47;;;16.10;99.90;;;;;;5014173;28;20034;-81
2023/07/06 07:41:42;;;;;;;8.02;4.70;;;16.30;99.90;;;;;;5004374;28;20084;-82
2023/07/06 07:44:09;;;;;;;7.35;5.90;;;16.40;99.90;;;;;;4997475;28;20076;-82
2023/07/06 07:46:35;;;;;;;9.68;5.43;;;16.50;99.90;;;;;;5019904;28;20052;-81
2023/07/06 07:49:01;;;;;;;11.98;6.35;;;16.80;99.90;;;;;;5016768;28;20029;-81
2023/07/06 07:51:28;;;;;;;12.18;7.50;;;17.10;99.90;;;;;;4997595;28;20038;-82
2023/07/06 07:53:55;;;;;;;7.95;5.40;;;17.70;99.90;;;;;;4999917;28;20029;-82
2023/07/06 07:56:23;;;;;;;12.15;7.28;;;17.60;99.90;;;;;;4993455;28;20053;-82
2023/07/06 07:58:49;;;;;;;11.93;6.95;;;18.00;99.90;;;;;;4997838;28;20029;-82
2023/07/06 08:01:21;;;;;;;10.77;7.93;;;18.40;99.90;;;;;;5016951;28;20068;-81
2023/07/06 08:03:47;;;;;;;13.15;7.15;;;18.10;99.90;;;;;;5015677;28;20440;-81
2023/07/06 08:06:16;;;;;;;12.77;6.85;;;18.10;99.90;;;;;;5014491;28;20026;-82
2023/07/06 08:08:43;;;;;;;20.23;9.05;;;17.90;99.90;;;;;;4998866;28;20077;-82
2023/07/06 08:11:22;;;;;;;10.13;5.32;;;17.70;99.90;;;;;;5002128;28;20030;-82
2023/07/06 08:13:50;;;;;;;9.68;6.03;;;17.70;99.90;;;;;;4998498;28;20036;-81
2023/07/06 08:16:17;;;;;;;11.20;6.35;;;17.80;99.90;;;;;;5001027;28;20030;-82
2023/07/06 08:18:43;;;;;;;7.63;4.50;;;17.90;99.90;;;;;;5016663;28;20117;-81
2023/07/06 08:21:10;;;;;;;9.77;5.45;;;18.00;99.90;;;;;;4996474;28;20127;-82
2023/07/06 08:23:40;;;;;;;6.47;4.85;;;18.00;99.90;;;;;;5003498;28;20030;-81
2023/07/06 08:26:10;;;;;;;9.88;5.80;;;18.00;99.90;;;;;;4997636;28;20029;-81
2023/07/06 08:28:36;;;;;;;14.70;7.13;;;18.00;99.90;;;;;;4996904;28;20037;-81
2023/07/06 08:31:03;;;;;;;10.70;7.03;;;17.90;99.90;;;;;;5014309;28;20040;-81
2023/07/06 08:33:35;;;;;;;8.18;5.47;;;18.10;99.90;;;;;;5005077;28;20029;-81
2023/07/06 08:36:09;;;;;;;9.63;6.20;;;18.20;99.90;;;;;;5011234;28;20041;-81
2023/07/06 08:38:37;;;;;;;8.40;6.40;;;18.30;99.90;;;;;;5005642;28;20036;-82
2023/07/06 08:41:10;;;;;;;11.95;7.20;;;18.30;99.90;;;;;;5018118;28;20387;-81
2023/07/06 08:43:38;;;;;;;10.05;5.72;;;18.50;99.90;;;;;;4996978;28;20453;-81
2023/07/06 08:46:05;;;;;;;7.55;5.20;;;18.90;99.90;;;;;;5019412;28;20568;-82
2023/07/06 08:48:34;;;;;;;8.27;6.32;;;19.20;99.90;;;;;;4999137;28;20044;-82
2023/07/06 08:51:06;;;;;;;10.43;6.18;;;19.30;99.90;;;;;;4997077;28;20026;-82
2023/07/06 08:53:33;;;;;;;6.47;5.38;;;19.40;99.90;;;;;;5000652;28;20538;-81
2023/07/06 08:56:03;;;;;;;8.20;5.57;;;19.80;99.90;;;;;;5020077;28;20514;-82
2023/07/06 08:58:32;;;;;;;7.28;5.30;;;19.70;99.90;;;;;;5010171;28;20030;-82
2023/07/06 09:01:22;;;;;;;9.10;5.30;;;19.60;99.90;;;;;;5003286;28;20094;-82
2023/07/06 09:03:49;;;;;;;;;;;20.00;99.90;;;;;;5019875;28;20284;-81
2023/07/06 09:06:21;;;;;;;7.78;5.55;;;19.90;99.90;;;;;;5028460;28;19913;-82
2023/07/06 09:08:50;;;;;;;8.40;5.25;;;19.90;99.90;;;;;;5020094;28;20461;-82
2023/07/06 09:11:17;;;;;;;6.43;4.67;;;20.20;99.90;;;;;;5006227;28;20025;-82
2023/07/06 09:13:49;;;;;;;8.55;5.18;;;20.70;99.90;;;;;;5006068;28;20336;-83
2023/07/06 09:16:19;;;;;;;6.85;4.53;;;21.10;99.90;;;;;;5021941;28;20437;-82
2023/07/06 09:18:46;;;;;;;6.20;3.80;;;21.20;99.90;;;;;;5005049;28;20553;-81
2023/07/06 09:21:12;;;;;;;7.85;4.25;;;20.60;99.90;;;;;;5018707;28;20034;-83
2023/07/06 09:23:39;;;;;;;10.52;5.30;;;20.70;99.90;;;;;;5026757;28;20038;-82
2023/07/06 09:26:07;;;;;;;8.63;5.43;;;20.70;99.90;;;;;;5025392;28;22714;-82
2023/07/06 09:28:33;;;;;;;7.65;4.57;;;20.20;99.90;;;;;;5017432;28;20577;-82
2023/07/06 09:31:13;;;;;;;7.53;4.65;;;20.00;99.90;;;;;;5021487;28;20458;-82
2023/07/06 09:33:43;;;;;;;;;;;20.20;99.90;;;;;;5024533;28;20079;-82
2023/07/06 09:36:11;;;;;;;;;;;20.50;99.90;;;;;;5019702;28;19913;-83
2023/07/06 09:38:43;;;;;;;7.15;4.00;;;20.70;99.90;;;;;;5026287;28;19913;-83
2023/07/06 09:41:21;;;;;;;12.02;6.32;;;20.70;99.90;;;;;;5020432;28;20083;-83
2023/07/06 09:43:49;;;;;;;8.75;4.68;;;20.50;99.90;;;;;;5004394;28;20228;-83
2023/07/06 09:46:15;;;;;;;6.40;4.30;;;21.00;99.90;;;;;;5011439;28;20219;-84
2023/07/06 09:48:41;;;;;;;7.50;5.18;;;20.60;99.90;;;;;;5020663;28;20476;-82
2023/07/06 09:51:21;;;;;;;4.57;2.85;;;20.00;99.90;;;;;;5024244;28;20184;-83
2023/07/06 09:54:02;;;;;;;5.40;3.13;;;19.90;99.90;;;;;;5012140;28;20049;-83
2023/07/06 09:56:29;;;;;;;6.07;3.40;;;20.10;99.90;;;;;;5022361;28;20502;-84
2023/07/06 09:58:57;;;;;;;7.70;4.40;;;20.50;99.90;;;;;;5008472;28;20120;-83
2023/07/06 10:01:36;;;;;;;5.03;3.30;;;20.60;99.90;;;;;;5003569;28;20084;-83
2023/07/06 10:04:11;;;;;;;6.18;3.35;;;20.90;99.90;;;;;;5021580;28;20072;-83
2023/07/06 10:07:05;;;;;;;6.22;4.43;;;21.40;99.90;;;;;;5016562;28;20083;-83
2023/07/06 10:09:43;;;;;;;5.57;2.80;;;21.80;99.90;;;;;;5023084;28;20413;-83
2023/07/06 10:12:28;;;;;;;7.40;5.35;;;22.00;99.90;;;;;;5002781;28;20038;-84
2023/07/06 10:14:54;;;;;;;8.18;4.22;;;21.10;99.90;;;;;;5019801;28;20589;-83
2023/07/06 10:17:45;;;;;;;6.47;3.75;;;21.70;99.90;;;;;;5008840;28;20084;-83
2023/07/06 10:20:18;;;;;;;7.10;3.03;;;22.10;99.90;;;;;;5004851;28;20040;-83
2023/07/06 10:23:04;;;;;;;4.00;2.88;;;21.80;99.90;;;;;;5020200;28;20022;-83
2023/07/06 10:26:00;;;;;;;5.75;3.42;;;21.90;99.90;;;;;;5020439;28;20034;-83
2023/07/06 10:28:32;;;;;;;5.53;3.17;;;22.10;99.90;;;;;;5011396;28;20050;-84
2023/07/06 10:30:59;;;;;;;7.63;3.80;;;21.90;99.90;;;;;;5002599;28;20029;-84
2023/07/06 10:33:52;;;;;;;8.13;5.00;;;21.40;99.90;;;;;;5014517;28;21277;-84
2023/07/06 10:36:19;;;;;;;7.50;3.80;;;20.90;99.90;;;;;;5001370;28;20553;-84
2023/07/06 10:38:48;;;;;;;4.60;3.13;;;21.40;99.90;;;;;;5004256;28;20025;-83
2023/07/06 10:41:14;;;;;;;2.75;1.92;;;21.70;99.90;;;;;;5017486;28;20088;-84
2023/07/06 10:43:42;;;;;;;5.10;2.55;;;22.90;99.90;;;;;;5019025;28;20029;-84
2023/07/06 10:46:30;;;;;;;7.30;3.53;;;22.80;99.90;;;;;;5019277;28;20390;-85
2023/07/06 10:48:57;;;;;;;4.80;1.80;;;21.30;99.90;;;;;;5003570;28;20299;-85
2023/07/06 10:51:25;;;;;;;5.43;2.22;;;20.60;99.90;;;;;;5022694;28;20060;-83
2023/07/06 10:54:23;;;;;;;4.25;2.05;;;20.70;99.90;;;;;;5007662;28;20047;-84
2023/07/06 10:57:18;;;;;;;8.10;3.33;;;22.10;99.90;;;;;;5015469;28;20384;-84
2023/07/06 10:59:51;;;;;;;4.10;2.00;;;20.70;99.90;;;;;;5000601;28;20066;-83
2023/07/06 11:02:40;;;;;;;3.53;1.38;;;21.30;99.90;;;;;;5018475;28;20063;-84
2023/07/06 11:05:24;;;;;;;2.42;1.00;;;21.90;99.90;;;;;;4998031;28;22487;-84
2023/07/06 11:07:54;;;;;;;3.42;0.98;;;21.20;99.90;;;;;;5017289;28;20045;-84
2023/07/06 11:10:37;;;;;;;4.20;1.08;;;21.90;99.90;;;;;;5014221;28;20025;-84
2023/07/06 11:13:04;;;;;;;4.90;1.50;;;21.10;99.90;;;;;;5018988;28;20041;-84
2023/07/06 11:15:35;;;;;;;3.20;0.80;;;20.80;99.90;;;;;;5011393;28;20253;-84
2023/07/06 11:18:32;;;;;;;2.17;0.50;;;21.80;99.90;;;;;;5018823;28;20038;-86
2023/07/06 11:21:18;;;;;;;5.35;1.30;;;22.60;99.90;;;;;;5016233;28;20132;-86
2023/07/06 11:23:45;;;;;;;3.15;0.77;;;21.70;99.90;;;;;;5014304;28;20453;-84
2023/07/06 11:26:38;;;;;;;3.40;0.93;;;21.80;99.90;;;;;;5015839;28;20124;-85
2023/07/06 11:29:08;;;;;;;2.17;0.50;;;21.80;99.90;;;;;;5003241;28;20479;-84
2023/07/06 11:31:43;;;;;;;2.63;0.50;;;22.60;99.90;;;;;;5017405;28;20022;-86
2023/07/06 11:34:22;;;;;;;4.38;0.68;;;22.50;99.90;;;;;;5019041;28;20033;-84
2023/07/06 11:36:59;;;;;;;1.83;0.70;;;22.20;99.90;;;;;;5017984;28;20036;-84
2023/07/06 11:39:44;;;;;;;4.00;0.90;;;22.30;99.90;;;;;;5019636;28;20028;-85
2023/07/06 11:42:27;;;;;;;4.10;0.40;;;22.60;99.90;;;;;;5017586;28;20033;-84
2023/07/06 11:44:54;;;;;;;2.08;0.40;;;23.70;99.90;;;;;;4999329;28;20040;-84
2023/07/06 11:47:35;;;;;;;4.22;0.60;;;23.50;99.90;;;;;;5016839;28;20483;-85
2023/07/06 11:50:09;;;;;;;3.50;0.68;;;22.90;99.90;;;;;;5011904;28;20095;-84
2023/07/06 11:52:39;;;;;;;2.67;0.60;;;23.10;99.90;;;;;;5031083;28;20025;-86
2023/07/06 11:55:34;;;;;;;2.83;0.65;;;23.00;99.90;;;;;;5017428;28;20085;-86
2023/07/06 12:01:01;;;;;;;3.28;0.80;;;22.40;99.90;;;;;;5015253;28;20026;-84
2023/07/06 12:03:29;;;;;;;3.08;0.60;;;23.40;99.90;;;;;;5014699;28;20554;-85
2023/07/06 12:05:58;;;;;;;2.55;0.63;;;22.80;99.90;;;;;;5001493;28;20097;-84
2023/07/06 12:08:35;;;;;;;1.98;0.60;;;22.60;99.90;;;;;;5015172;28;20034;-84
2023/07/06 12:11:05;;;;;;;1.70;0.43;;;22.90;99.90;;;;;;5021692;28;20057;-84
2023/07/06 12:13:33;;;;;;;2.38;0.50;;;23.70;99.90;;;;;;5012256;28;20437;-84
2023/07/06 12:16:08;;;;;;;1.70;0.50;;;23.60;99.90;;;;;;5019857;28;20068;-84
2023/07/06 12:18:34;;;;;;;2.28;0.77;;;23.50;99.90;;;;;;5022331;28;20160;-85
2023/07/06 12:21:02;;;;;;;5.32;0.95;;;22.70;99.90;;;;;;5000087;28;20080;-85
2023/07/06 12:23:28;;;;;;;3.40;1.00;;;22.20;99.90;;;;;;5013678;28;20034;-84
2023/07/06 12:25:55;;;;;;;2.05;0.47;;;22.70;99.90;;;;;;5019316;28;20032;-86
2023/07/06 12:28:24;;;;;;;3.30;0.60;;;22.70;99.90;;;;;;5014410;28;20493;-84
2023/07/06 12:30:52;;;;;;;5.47;0.93;;;23.30;99.90;;;;;;5019754;28;20033;-82
2023/07/06 12:33:19;;;;;;;3.13;0.60;;;22.70;99.90;;;;;;5016796;28;20025;-84
2023/07/06 12:35:47;;;;;;;1.73;0.90;;;23.30;99.90;;;;;;5018537;28;20466;-84
2023/07/06 12:38:16;;;;;;;3.75;0.70;;;22.00;99.90;;;;;;5018113;28;20474;-84
2023/07/06 12:40:42;;;;;;;4.20;0.80;;;22.60;99.90;;;;;;5013309;28;20018;-84
2023/07/06 12:43:24;;;;;;;2.58;0.40;;;22.90;99.90;;;;;;5011998;28;20037;-83
2023/07/06 12:45:52;;;;;;;2.17;0.40;;;23.50;99.90;;;;;;5011831;28;20038;-83
2023/07/06 12:48:24;;;;;;;1.08;0.32;;;23.60;99.90;;;;;;5018434;28;20050;-84
2023/07/06 12:50:54;;;;;;;1.70;0.40;;;23.60;99.90;;;;;;4998414;28;20432;-83
2023/07/06 12:53:27;;;;;;;1.92;0.32;;;23.70;99.90;;;;;;5014331;28;20030;-85
2023/07/06 12:56:00;;;;;;;3.50;0.77;;;23.40;99.90;;;;;;5001026;28;20026;-85
2023/07/06 12:58:35;;;;;;;2.25;0.47;;;22.30;99.90;;;;;;5014334;28;20247;-83
2023/07/06 13:01:06;;;;;;;5.25;0.70;;;22.20;99.90;;;;;;4999947;28;20601;-86
2023/07/06 13:03:59;;;;;;;6.65;0.82;;;21.60;99.90;;;;;;5005373;28;20070;-86
2023/07/06 13:06:27;;;;;;;5.97;0.70;;;21.40;99.90;;;;;;5016708;28;20110;-86